sensor_id;sensor_type;location;lat;lon;timestamp;temperature;humidity
2477;DHT22;1249;51.270;6.756;2023-07-29T00:01:34;23.10;99.90
2477;DHT22;1249;51.270;6.756;2023-07-29T00:03:59;23.10;99.90
2477;DHT22;1249;51.270;6.756;2023-07-29T00:06:25;23.10;99.90
2477;DHT22;1249;51.270;6.756;2023-07-29T00:08:50;23.10;99.90
2477;DHT22;1249;51.270;6.756;2023-07-29T00:11:16;23.00;99.90
2477;DHT22;1249;51.270;6.756;2023-07-29T00:13:41;23.00;99.90
2477;DHT22;1249;51.270;6.756;2023-07-29T00:16:07;23.00;99.90
2477;DHT22;1249;51.270;6.756;2023-07-29T00:18:33;23.00;99.90
2477;DHT22;1249;51.270;6.756;2023-07-29T00:20:58;23.00;99.90
2477;DHT22;1249;51.270;6.756;2023-07-29T00:23:24;23.00;99.90
2477;DHT22;1249;51.270;6.756;2023-07-29T00:25:50;23.00;99.90
2477;DHT22;1249;51.270;6.756;2023-07-29T00:28:15;23.00;99.90
2477;DHT22;1249;51.270;6.756;2023-07-29T00:30:41;23.00;99.90
2477;DHT22;1249;51.270;6.756;2023-07-29T00:33:06;23.00;99.90
2477;DHT22;1249;51.270;6.756;2023-07-29T00:35:32;23.00;99.90
2477;DHT22;1249;51.270;6.756;2023-07-29T00:37:57;23.00;99.90
2477;DHT22;1249;51.270;6.756;2023-07-29T00:40:23;23.00;99.90
2477;DHT22;1249;51.270;6.756;2023-07-29T00:42:49;23.00;99.90
2477;DHT22;1249;51.270;6.756;2023-07-29T00:45:16;22.90;99.90
2477;DHT22;1249;51.270;6.756;2023-07-29T00:47:42;23.00;99.90
2477;DHT22;1249;51.270;6.756;2023-07-29T00:50:09;23.00;99.90
2477;DHT22;1249;51.270;6.756;2023-07-29T00:52:35;23.00;99.90
2477;DHT22;1249;51.270;6.756;2023-07-29T00:55:01;22.90;99.90
2477;DHT22;1249;51.270;6.756;2023-07-29T00:57:28;22.90;99.90
2477;DHT22;1249;51.270;6.756;2023-07-29T00:59:54;22.90;99.90
2477;DHT22;1249;51.270;6.756;2023-07-29T01:02:20;22.90;99.90
2477;DHT22;1249;51.270;6.756;2023-07-29T01:04:52;22.90;99.90
2477;DHT22;1249;51.270;6.756;2023-07-29T01:15:43;22.90;99.90
2477;DHT22;1249;51.270;6.756;2023-07-29T01:18:31;22.90;99.90
2477;DHT22;1249;51.270;6.756;2023-07-29T01:20:59;22.90;99.90
2477;DHT22;1249;51.270;6.756;2023-07-29T01:23:34;22.80;99.90
2477;DHT22;1249;51.270;6.756;2023-07-29T01:26:00;22.80;99.90
2477;DHT22;1249;51.270;6.756;2023-07-29T01:28:27;22.90;99.90
2477;DHT22;1249;51.270;6.756;2023-07-29T01:30:59;22.80;99.90
2477;DHT22;1249;51.270;6.756;2023-07-29T01:33:26;22.80;99.90
2477;DHT22;1249;51.270;6.756;2023-07-29T01:35:58;22.90;99.90
2477;DHT22;1249;51.270;6.756;2023-07-29T01:38:33;22.90;99.90
2477;DHT22;1249;51.270;6.756;2023-07-29T01:41:06;22.90;99.90
2477;DHT22;1249;51.270;6.756;2023-07-29T01:43:33;22.80;99.90
2477;DHT22;1249;51.270;6.756;2023-07-29T01:46:00;22.90;99.90
2477;DHT22;1249;51.270;6.756;2023-07-29T01:48:26;22.90;99.90
2477;DHT22;1249;51.270;6.756;2023-07-29T01:50:53;22.90;99.90
2477;DHT22;1249;51.270;6.756;2023-07-29T01:53:18;22.80;99.90
2477;DHT22;1249;51.270;6.756;2023-07-29T01:55:44;22.90;99.90
2477;DHT22;1249;51.270;6.756;2023-07-29T01:58:10;22.90;99.90
2477;DHT22;1249;51.270;6.756;2023-07-29T02:00:36;22.80;99.90
2477;DHT22;1249;51.270;6.756;2023-07-29T02:03:02;22.80;99.90
2477;DHT22;1249;51.270;6.756;2023-07-29T02:05:27;22.80;99.90
2477;DHT22;1249;51.270;6.756;2023-07-29T02:07:53;22.80;99.90
2477;DHT22;1249;51.270;6.756;2023-07-29T02:10:18;22.80;99.90
2477;DHT22;1249;51.270;6.756;2023-07-29T02:12:44;22.80;99.90
2477;DHT22;1249;51.270;6.756;2023-07-29T02:15:10;22.80;99.90
2477;DHT22;1249;51.270;6.756;2023-07-29T02:17:36;22.90;99.90
2477;DHT22;1249;51.270;6.756;2023-07-29T02:20:02;22.80;99.90
2477;DHT22;1249;51.270;6.756;2023-07-29T02:22:29;22.80;99.90
2477;DHT22;1249;51.270;6.756;2023-07-29T02:24:54;22.80;99.90
2477;DHT22;1249;51.270;6.756;2023-07-29T02:27:20;22.90;99.90
2477;DHT22;1249;51.270;6.756;2023-07-29T02:29:46;22.80;99.90
2477;DHT22;1249;51.270;6.756;2023-07-29T02:32:11;22.80;99.90
2477;DHT22;1249;51.270;6.756;2023-07-29T02:34:37;22.90;99.90
2477;DHT22;1249;51.270;6.756;2023-07-29T02:37:02;22.80;99.90
2477;DHT22;1249;51.270;6.756;2023-07-29T02:39:28;22.90;99.90
2477;DHT22;1249;51.270;6.756;2023-07-29T02:41:54;22.80;99.90
2477;DHT22;1249;51.270;6.756;2023-07-29T02:44:21;22.80;99.90
2477;DHT22;1249;51.270;6.756;2023-07-29T02:46:46;22.90;99.90
2477;DHT22;1249;51.270;6.756;2023-07-29T02:49:12;22.80;99.90
2477;DHT22;1249;51.270;6.756;2023-07-29T02:51:37;22.80;99.90
2477;DHT22;1249;51.270;6.756;2023-07-29T02:54:03;22.90;99.90
2477;DHT22;1249;51.270;6.756;2023-07-29T02:56:28;22.80;99.90
2477;DHT22;1249;51.270;6.756;2023-07-29T02:58:56;22.80;99.90
2477;DHT22;1249;51.270;6.756;2023-07-29T03:01:23;22.80;99.90
2477;DHT22;1249;51.270;6.756;2023-07-29T03:03:50;22.80;99.90
2477;DHT22;1249;51.270;6.756;2023-07-29T03:06:16;22.80;99.90
2477;DHT22;1249;51.270;6.756;2023-07-29T03:08:42;22.80;99.90
2477;DHT22;1249;51.270;6.756;2023-07-29T03:11:09;22.80;99.90
2477;DHT22;1249;51.270;6.756;2023-07-29T03:13:35;22.80;99.90
2477;DHT22;1249;51.270;6.756;2023-07-29T03:16:08;22.70;99.90
2477;DHT22;1249;51.270;6.756;2023-07-29T03:18:34;22.80;99.90
2477;DHT22;1249;51.270;6.756;2023-07-29T03:21:00;22.80;99.90
2477;DHT22;1249;51.270;6.756;2023-07-29T03:23:27;22.80;99.90
2477;DHT22;1249;51.270;6.756;2023-07-29T03:25:55;22.80;99.90
2477;DHT22;1249;51.270;6.756;2023-07-29T03:28:26;22.80;99.90
2477;DHT22;1249;51.270;6.756;2023-07-29T03:30:53;22.80;99.90
2477;DHT22;1249;51.270;6.756;2023-07-29T03:33:19;22.80;99.90
2477;DHT22;1249;51.270;6.756;2023-07-29T03:35:44;22.70;99.90
2477;DHT22;1249;51.270;6.756;2023-07-29T03:38:11;22.70;99.90
2477;DHT22;1249;51.270;6.756;2023-07-29T03:40:40;22.70;99.90
2477;DHT22;1249;51.270;6.756;2023-07-29T03:43:06;22.70;99.90
2477;DHT22;1249;51.270;6.756;2023-07-29T03:45:32;22.70;99.90
2477;DHT22;1249;51.270;6.756;2023-07-29T03:47:57;22.70;99.90
2477;DHT22;1249;51.270;6.756;2023-07-29T03:50:23;22.70;99.90
2477;DHT22;1249;51.270;6.756;2023-07-29T03:52:49;22.70;99.90
2477;DHT22;1249;51.270;6.756;2023-07-29T03:55:15;22.70;99.90
2477;DHT22;1249;51.270;6.756;2023-07-29T03:57:41;22.70;99.90
2477;DHT22;1249;51.270;6.756;2023-07-29T04:00:07;22.70;99.90
2477;DHT22;1249;51.270;6.756;2023-07-29T04:02:32;22.70;99.90
2477;DHT22;1249;51.270;6.756;2023-07-29T04:04:58;22.70;99.90
2477;DHT22;1249;51.270;6.756;2023-07-29T04:07:23;22.60;99.90
2477;DHT22;1249;51.270;6.756;2023-07-29T04:09:49;22.60;99.90
2477;DHT22;1249;51.270;6.756;2023-07-29T04:12:15;22.60;99.90
2477;DHT22;1249;51.270;6.756;2023-07-29T04:14:41;22.60;99.90
2477;DHT22;1249;51.270;6.756;2023-07-29T04:17:07;22.60;99.90
2477;DHT22;1249;51.270;6.756;2023-07-29T04:19:33;22.60;99.90
2477;DHT22;1249;51.270;6.756;2023-07-29T04:21:59;22.60;99.90
2477;DHT22;1249;51.270;6.756;2023-07-29T04:24:24;22.60;99.90
2477;DHT22;1249;51.270;6.756;2023-07-29T04:26:50;22.60;99.90
2477;DHT22;1249;51.270;6.756;2023-07-29T04:29:16;22.60;99.90
2477;DHT22;1249;51.270;6.756;2023-07-29T04:31:42;22.60;99.90
2477;DHT22;1249;51.270;6.756;2023-07-29T04:34:08;22.60;99.90
2477;DHT22;1249;51.270;6.756;2023-07-29T04:36:33;22.50;99.90
2477;DHT22;1249;51.270;6.756;2023-07-29T04:38:59;22.60;99.90
2477;DHT22;1249;51.270;6.756;2023-07-29T04:41:24;22.60;99.90
2477;DHT22;1249;51.270;6.756;2023-07-29T04:43:50;22.50;99.90
2477;DHT22;1249;51.270;6.756;2023-07-29T04:46:16;22.60;99.90
2477;DHT22;1249;51.270;6.756;2023-07-29T04:48:41;22.50;99.90
2477;DHT22;1249;51.270;6.756;2023-07-29T04:51:07;22.50;99.90
2477;DHT22;1249;51.270;6.756;2023-07-29T04:53:32;22.50;99.90
2477;DHT22;1249;51.270;6.756;2023-07-29T04:56:00;22.50;99.90
2477;DHT22;1249;51.270;6.756;2023-07-29T04:58:25;22.50;99.90
2477;DHT22;1249;51.270;6.756;2023-07-29T05:00:54;22.60;99.90
2477;DHT22;1249;51.270;6.756;2023-07-29T05:03:19;22.50;99.90
2477;DHT22;1249;51.270;6.756;2023-07-29T05:05:45;22.60;99.90
2477;DHT22;1249;51.270;6.756;2023-07-29T05:08:10;22.60;99.90
2477;DHT22;1249;51.270;6.756;2023-07-29T05:10:36;22.70;99.90
2477;DHT22;1249;51.270;6.756;2023-07-29T05:13:01;22.60;99.90
2477;DHT22;1249;51.270;6.756;2023-07-29T05:15:27;22.60;99.90
2477;DHT22;1249;51.270;6.756;2023-07-29T05:17:52;22.60;99.90
2477;DHT22;1249;51.270;6.756;2023-07-29T05:20:18;22.60;99.90
2477;DHT22;1249;51.270;6.756;2023-07-29T05:22:43;22.60;99.90
2477;DHT22;1249;51.270;6.756;2023-07-29T05:25:09;22.60;99.90
2477;DHT22;1249;51.270;6.756;2023-07-29T05:27:35;22.60;99.90
2477;DHT22;1249;51.270;6.756;2023-07-29T05:30:00;22.60;99.90
2477;DHT22;1249;51.270;6.756;2023-07-29T05:32:26;22.60;99.90
2477;DHT22;1249;51.270;6.756;2023-07-29T05:34:51;22.50;99.90
2477;DHT22;1249;51.270;6.756;2023-07-29T05:37:17;22.40;99.90
2477;DHT22;1249;51.270;6.756;2023-07-29T05:39:42;22.40;99.90
2477;DHT22;1249;51.270;6.756;2023-07-29T05:42:08;22.40;99.90
2477;DHT22;1249;51.270;6.756;2023-07-29T05:44:33;22.40;99.90
2477;DHT22;1249;51.270;6.756;2023-07-29T05:46:59;22.40;99.90
2477;DHT22;1249;51.270;6.756;2023-07-29T05:49:24;22.40;99.90
2477;DHT22;1249;51.270;6.756;2023-07-29T05:51:50;22.40;99.90
2477;DHT22;1249;51.270;6.756;2023-07-29T05:54:18;22.30;99.90
2477;DHT22;1249;51.270;6.756;2023-07-29T05:56:44;22.30;99.90
2477;DHT22;1249;51.270;6.756;2023-07-29T05:59:09;22.30;99.90
2477;DHT22;1249;51.270;6.756;2023-07-29T06:01:35;22.30;99.90
2477;DHT22;1249;51.270;6.756;2023-07-29T06:04:01;22.30;99.90
2477;DHT22;1249;51.270;6.756;2023-07-29T06:06:26;22.40;99.90
2477;DHT22;1249;51.270;6.756;2023-07-29T06:08:52;22.30;99.90
2477;DHT22;1249;51.270;6.756;2023-07-29T06:11:18;22.40;99.90
2477;DHT22;1249;51.270;6.756;2023-07-29T06:13:43;22.40;99.90
2477;DHT22;1249;51.270;6.756;2023-07-29T06:16:09;22.50;99.90
2477;DHT22;1249;51.270;6.756;2023-07-29T06:18:34;22.50;99.90
2477;DHT22;1249;51.270;6.756;2023-07-29T06:21:00;22.50;99.90
2477;DHT22;1249;51.270;6.756;2023-07-29T06:23:25;22.50;99.90
2477;DHT22;1249;51.270;6.756;2023-07-29T06:25:51;22.40;99.90
2477;DHT22;1249;51.270;6.756;2023-07-29T06:28:16;22.50;99.90
2477;DHT22;1249;51.270;6.756;2023-07-29T06:30:42;22.50;99.90
2477;DHT22;1249;51.270;6.756;2023-07-29T06:33:07;22.60;99.90
2477;DHT22;1249;51.270;6.756;2023-07-29T06:35:34;22.60;99.90
2477;DHT22;1249;51.270;6.756;2023-07-29T06:37:59;22.70;99.90
2477;DHT22;1249;51.270;6.756;2023-07-29T06:40:25;22.80;99.90
2477;DHT22;1249;51.270;6.756;2023-07-29T06:42:50;22.80;99.90
2477;DHT22;1249;51.270;6.756;2023-07-29T06:45:16;22.80;99.90
2477;DHT22;1249;51.270;6.756;2023-07-29T06:47:41;22.90;99.90
2477;DHT22;1249;51.270;6.756;2023-07-29T06:50:07;23.00;99.90
2477;DHT22;1249;51.270;6.756;2023-07-29T06:52:33;23.10;99.90
2477;DHT22;1249;51.270;6.756;2023-07-29T06:54:59;23.20;99.90
2477;DHT22;1249;51.270;6.756;2023-07-29T06:57:24;23.20;99.90
2477;DHT22;1249;51.270;6.756;2023-07-29T06:59:50;23.60;99.90
2477;DHT22;1249;51.270;6.756;2023-07-29T07:02:15;24.00;99.90
2477;DHT22;1249;51.270;6.756;2023-07-29T07:04:41;24.00;99.90
2477;DHT22;1249;51.270;6.756;2023-07-29T07:07:07;24.00;99.90
2477;DHT22;1249;51.270;6.756;2023-07-29T07:09:33;24.00;99.90
2477;DHT22;1249;51.270;6.756;2023-07-29T07:11:58;23.90;99.90
2477;DHT22;1249;51.270;6.756;2023-07-29T07:14:24;23.80;99.90
2477;DHT22;1249;51.270;6.756;2023-07-29T07:16:49;23.80;99.90
2477;DHT22;1249;51.270;6.756;2023-07-29T07:19:15;23.90;99.90
2477;DHT22;1249;51.270;6.756;2023-07-29T07:21:40;23.90;99.90
2477;DHT22;1249;51.270;6.756;2023-07-29T07:24:06;24.20;99.90
2477;DHT22;1249;51.270;6.756;2023-07-29T07:26:31;24.30;99.90
2477;DHT22;1249;51.270;6.756;2023-07-29T07:28:57;24.30;99.90
2477;DHT22;1249;51.270;6.756;2023-07-29T07:31:23;24.60;99.90
2477;DHT22;1249;51.270;6.756;2023-07-29T07:33:48;24.70;99.90
2477;DHT22;1249;51.270;6.756;2023-07-29T07:36:14;24.80;99.90
2477;DHT22;1249;51.270;6.756;2023-07-29T07:38:41;25.00;99.90
2477;DHT22;1249;51.270;6.756;2023-07-29T07:41:06;25.40;99.90
2477;DHT22;1249;51.270;6.756;2023-07-29T07:43:32;25.40;99.90
2477;DHT22;1249;51.270;6.756;2023-07-29T07:45:58;25.60;99.90
2477;DHT22;1249;51.270;6.756;2023-07-29T07:48:25;26.10;99.90
2477;DHT22;1249;51.270;6.756;2023-07-29T07:50:50;26.50;99.90
2477;DHT22;1249;51.270;6.756;2023-07-29T07:53:16;26.60;99.90
2477;DHT22;1249;51.270;6.756;2023-07-29T07:55:41;26.80;99.90
2477;DHT22;1249;51.270;6.756;2023-07-29T07:58:07;27.10;99.90
2477;DHT22;1249;51.270;6.756;2023-07-29T08:00:32;27.60;99.90
2477;DHT22;1249;51.270;6.756;2023-07-29T08:02:58;27.70;98.90
2477;DHT22;1249;51.270;6.756;2023-07-29T08:05:23;27.90;97.80
2477;DHT22;1249;51.270;6.756;2023-07-29T08:07:49;27.70;95.30
2477;DHT22;1249;51.270;6.756;2023-07-29T08:10:15;27.50;96.90
2477;DHT22;1249;51.270;6.756;2023-07-29T08:12:40;27.80;96.80
2477;DHT22;1249;51.270;6.756;2023-07-29T08:15:06;27.60;95.30
2477;DHT22;1249;51.270;6.756;2023-07-29T08:17:32;27.80;95.90
2477;DHT22;1249;51.270;6.756;2023-07-29T08:19:57;28.20;95.00
2477;DHT22;1249;51.270;6.756;2023-07-29T08:22:24;28.30;92.00
2477;DHT22;1249;51.270;6.756;2023-07-29T08:24:49;28.30;92.40
2477;DHT22;1249;51.270;6.756;2023-07-29T08:27:15;28.60;93.20
2477;DHT22;1249;51.270;6.756;2023-07-29T08:29:40;29.00;91.40
2477;DHT22;1249;51.270;6.756;2023-07-29T08:32:07;29.40;90.10
2477;DHT22;1249;51.270;6.756;2023-07-29T08:34:32;29.80;86.60
2477;DHT22;1249;51.270;6.756;2023-07-29T08:36:58;30.10;85.30
2477;DHT22;1249;51.270;6.756;2023-07-29T08:39:23;30.40;82.00
2477;DHT22;1249;51.270;6.756;2023-07-29T08:41:57;30.50;80.80
2477;DHT22;1249;51.270;6.756;2023-07-29T08:44:26;30.60;80.60
2477;DHT22;1249;51.270;6.756;2023-07-29T08:46:55;30.80;80.30
2477;DHT22;1249;51.270;6.756;2023-07-29T08:49:23;31.10;78.90
2477;DHT22;1249;51.270;6.756;2023-07-29T08:51:49;31.30;78.00
2477;DHT22;1249;51.270;6.756;2023-07-29T08:54:16;31.30;77.00
2477;DHT22;1249;51.270;6.756;2023-07-29T08:56:42;31.60;76.80
2477;DHT22;1249;51.270;6.756;2023-07-29T08:59:10;31.90;75.20
2477;DHT22;1249;51.270;6.756;2023-07-29T09:01:39;31.90;73.00
2477;DHT22;1249;51.270;6.756;2023-07-29T09:04:05;31.50;71.40
2477;DHT22;1249;51.270;6.756;2023-07-29T09:06:31;30.90;71.90
2477;DHT22;1249;51.270;6.756;2023-07-29T09:08:58;30.30;72.90
2477;DHT22;1249;51.270;6.756;2023-07-29T09:11:24;29.70;74.00
2477;DHT22;1249;51.270;6.756;2023-07-29T09:13:50;29.10;75.80
2477;DHT22;1249;51.270;6.756;2023-07-29T09:16:16;28.80;78.10
2477;DHT22;1249;51.270;6.756;2023-07-29T09:18:41;28.60;79.50
2477;DHT22;1249;51.270;6.756;2023-07-29T09:21:07;28.30;80.30
2477;DHT22;1249;51.270;6.756;2023-07-29T09:23:41;28.00;81.20
2477;DHT22;1249;51.270;6.756;2023-07-29T09:26:07;27.70;82.10
2477;DHT22;1249;51.270;6.756;2023-07-29T09:28:40;27.30;83.60
2477;DHT22;1249;51.270;6.756;2023-07-29T09:31:06;27.10;85.20
2477;DHT22;1249;51.270;6.756;2023-07-29T09:33:35;26.80;86.30
2477;DHT22;1249;51.270;6.756;2023-07-29T09:36:11;26.60;87.40
2477;DHT22;1249;51.270;6.756;2023-07-29T09:38:38;26.50;88.50
2477;DHT22;1249;51.270;6.756;2023-07-29T09:41:04;26.30;89.90
2477;DHT22;1249;51.270;6.756;2023-07-29T09:43:31;26.40;90.60
2477;DHT22;1249;51.270;6.756;2023-07-29T09:46:00;26.50;90.70
2477;DHT22;1249;51.270;6.756;2023-07-29T09:48:26;26.60;90.70
2477;DHT22;1249;51.270;6.756;2023-07-29T09:50:54;26.60;90.90
2477;DHT22;1249;51.270;6.756;2023-07-29T09:53:20;27.00;91.90
2477;DHT22;1249;51.270;6.756;2023-07-29T09:55:47;27.60;91.00
2477;DHT22;1249;51.270;6.756;2023-07-29T09:58:28;28.10;90.70
2477;DHT22;1249;51.270;6.756;2023-07-29T10:00:53;29.00;89.70
2477;DHT22;1249;51.270;6.756;2023-07-29T10:03:21;29.70;86.80
2477;DHT22;1249;51.270;6.756;2023-07-29T10:05:46;29.80;81.10
2477;DHT22;1249;51.270;6.756;2023-07-29T10:08:13;29.80;80.60
2477;DHT22;1249;51.270;6.756;2023-07-29T10:10:41;29.80;79.40
2477;DHT22;1249;51.270;6.756;2023-07-29T10:13:07;30.20;78.90
2477;DHT22;1249;51.270;6.756;2023-07-29T10:15:33;30.90;77.20
2477;DHT22;1249;51.270;6.756;2023-07-29T10:17:59;31.40;73.50
2477;DHT22;1249;51.270;6.756;2023-07-29T10:20:26;31.80;70.50
2477;DHT22;1249;51.270;6.756;2023-07-29T10:22:52;31.40;69.80
2477;DHT22;1249;51.270;6.756;2023-07-29T10:25:22;30.90;70.30
2477;DHT22;1249;51.270;6.756;2023-07-29T10:27:54;30.50;71.90
2477;DHT22;1249;51.270;6.756;2023-07-29T10:30:21;30.40;73.10
2477;DHT22;1249;51.270;6.756;2023-07-29T10:32:48;30.40;73.50
2477;DHT22;1249;51.270;6.756;2023-07-29T10:35:15;30.30;73.10
2477;DHT22;1249;51.270;6.756;2023-07-29T10:37:42;30.10;73.20
2477;DHT22;1249;51.270;6.756;2023-07-29T10:40:09;29.80;73.70
2477;DHT22;1249;51.270;6.756;2023-07-29T10:42:35;29.70;74.80
2477;DHT22;1249;51.270;6.756;2023-07-29T10:45:18;29.70;75.10
2477;DHT22;1249;51.270;6.756;2023-07-29T10:47:43;29.50;75.50
2477;DHT22;1249;51.270;6.756;2023-07-29T10:50:18;29.30;75.30
2477;DHT22;1249;51.270;6.756;2023-07-29T10:52:49;29.10;75.30
2477;DHT22;1249;51.270;6.756;2023-07-29T10:55:34;28.90;75.40
2477;DHT22;1249;51.270;6.756;2023-07-29T10:58:16;28.70;76.20
2477;DHT22;1249;51.270;6.756;2023-07-29T11:00:45;28.60;77.10
2477;DHT22;1249;51.270;6.756;2023-07-29T11:03:13;29.10;78.60
2477;DHT22;1249;51.270;6.756;2023-07-29T11:05:44;29.50;76.20
2477;DHT22;1249;51.270;6.756;2023-07-29T11:11:00;29.30;73.50
2477;DHT22;1249;51.270;6.756;2023-07-29T11:13:27;29.00;74.10
2477;DHT22;1249;51.270;6.756;2023-07-29T11:15:54;28.70;74.40
2477;DHT22;1249;51.270;6.756;2023-07-29T11:18:21;28.40;75.60
2477;DHT22;1249;51.270;6.756;2023-07-29T11:20:46;28.10;76.90
2477;DHT22;1249;51.270;6.756;2023-07-29T11:23:13;27.70;78.00
2477;DHT22;1249;51.270;6.756;2023-07-29T11:25:39;27.40;79.50
2477;DHT22;1249;51.270;6.756;2023-07-29T11:28:04;27.30;80.80
2477;DHT22;1249;51.270;6.756;2023-07-29T11:30:30;27.40;82.50
2477;DHT22;1249;51.270;6.756;2023-07-29T11:32:57;27.80;84.70
2477;DHT22;1249;51.270;6.756;2023-07-29T11:35:23;29.30;84.00
2477;DHT22;1249;51.270;6.756;2023-07-29T11:37:51;30.50;77.20
2477;DHT22;1249;51.270;6.756;2023-07-29T11:40:19;31.10;73.30
2477;DHT22;1249;51.270;6.756;2023-07-29T11:42:45;31.80;70.20
2477;DHT22;1249;51.270;6.756;2023-07-29T11:45:12;31.60;68.10
2477;DHT22;1249;51.270;6.756;2023-07-29T11:47:38;31.10;68.20
2477;DHT22;1249;51.270;6.756;2023-07-29T11:50:06;30.80;69.70
2477;DHT22;1249;51.270;6.756;2023-07-29T11:52:33;30.40;70.90
2477;DHT22;1249;51.270;6.756;2023-07-29T11:55:00;30.20;72.00
2477;DHT22;1249;51.270;6.756;2023-07-29T11:57:27;29.90;72.00
2477;DHT22;1249;51.270;6.756;2023-07-29T11:59:52;29.60;72.90
2477;DHT22;1249;51.270;6.756;2023-07-29T12:02:19;29.70;75.90
2477;DHT22;1249;51.270;6.756;2023-07-29T12:04:46;30.70;71.30
2477;DHT22;1249;51.270;6.756;2023-07-29T12:07:13;31.60;72.90
2477;DHT22;1249;51.270;6.756;2023-07-29T12:09:40;32.70;68.90
2477;DHT22;1249;51.270;6.756;2023-07-29T12:12:06;33.00;66.60
2477;DHT22;1249;51.270;6.756;2023-07-29T12:14:32;33.90;64.20
2477;DHT22;1249;51.270;6.756;2023-07-29T12:17:03;34.60;62.60
2477;DHT22;1249;51.270;6.756;2023-07-29T12:19:36;35.20;61.40
2477;DHT22;1249;51.270;6.756;2023-07-29T12:22:03;36.00;59.90
2477;DHT22;1249;51.270;6.756;2023-07-29T12:24:34;36.50;57.40
2477;DHT22;1249;51.270;6.756;2023-07-29T12:27:00;36.90;57.90
2477;DHT22;1249;51.270;6.756;2023-07-29T12:29:27;37.30;56.00
2477;DHT22;1249;51.270;6.756;2023-07-29T12:32:03;37.20;56.50
2477;DHT22;1249;51.270;6.756;2023-07-29T12:34:30;37.90;55.80
2477;DHT22;1249;51.270;6.756;2023-07-29T12:36:58;38.40;54.40
2477;DHT22;1249;51.270;6.756;2023-07-29T12:39:31;38.80;52.60
2477;DHT22;1249;51.270;6.756;2023-07-29T12:41:59;38.60;50.70
2477;DHT22;1249;51.270;6.756;2023-07-29T12:44:26;38.80;53.00
2477;DHT22;1249;51.270;6.756;2023-07-29T12:46:52;39.20;51.00
2477;DHT22;1249;51.270;6.756;2023-07-29T12:49:18;38.90;50.00
2477;DHT22;1249;51.270;6.756;2023-07-29T12:51:44;37.90;50.50
2477;DHT22;1249;51.270;6.756;2023-07-29T12:54:09;37.30;53.10
2477;DHT22;1249;51.270;6.756;2023-07-29T12:56:35;37.70;52.20
2477;DHT22;1249;51.270;6.756;2023-07-29T12:59:01;37.40;51.80
2477;DHT22;1249;51.270;6.756;2023-07-29T13:01:27;36.90;52.20
2477;DHT22;1249;51.270;6.756;2023-07-29T13:03:53;36.20;53.20
2477;DHT22;1249;51.270;6.756;2023-07-29T13:06:19;35.60;54.20
2477;DHT22;1249;51.270;6.756;2023-07-29T13:08:46;35.20;55.50
2477;DHT22;1249;51.270;6.756;2023-07-29T13:11:12;35.00;55.70
2477;DHT22;1249;51.270;6.756;2023-07-29T13:13:37;34.60;56.00
2477;DHT22;1249;51.270;6.756;2023-07-29T13:16:03;34.00;56.10
2477;DHT22;1249;51.270;6.756;2023-07-29T13:18:29;33.50;57.20
2477;DHT22;1249;51.270;6.756;2023-07-29T13:20:55;33.10;58.20
2477;DHT22;1249;51.270;6.756;2023-07-29T13:23:21;32.60;58.50
2477;DHT22;1249;51.270;6.756;2023-07-29T13:25:47;32.30;59.80
2477;DHT22;1249;51.270;6.756;2023-07-29T13:28:13;32.00;60.70
2477;DHT22;1249;51.270;6.756;2023-07-29T13:30:39;31.70;62.20
2477;DHT22;1249;51.270;6.756;2023-07-29T13:33:05;31.30;63.00
2477;DHT22;1249;51.270;6.756;2023-07-29T13:35:31;30.90;63.80
2477;DHT22;1249;51.270;6.756;2023-07-29T13:37:57;30.60;65.30
2477;DHT22;1249;51.270;6.756;2023-07-29T13:40:22;30.30;66.20
2477;DHT22;1249;51.270;6.756;2023-07-29T13:42:48;30.00;68.60
2477;DHT22;1249;51.270;6.756;2023-07-29T13:45:13;29.80;70.30
2477;DHT22;1249;51.270;6.756;2023-07-29T13:47:39;29.50;71.80
2477;DHT22;1249;51.270;6.756;2023-07-29T13:50:05;29.20;72.80
2477;DHT22;1249;51.270;6.756;2023-07-29T13:52:32;28.90;73.40
2477;DHT22;1249;51.270;6.756;2023-07-29T13:54:58;28.80;74.70
2477;DHT22;1249;51.270;6.756;2023-07-29T13:57:23;28.80;75.40
2477;DHT22;1249;51.270;6.756;2023-07-29T13:59:49;28.80;76.10
2477;DHT22;1249;51.270;6.756;2023-07-29T14:02:14;28.90;75.70
2477;DHT22;1249;51.270;6.756;2023-07-29T14:04:40;29.20;76.90
2477;DHT22;1249;51.270;6.756;2023-07-29T14:07:06;29.70;75.80
2477;DHT22;1249;51.270;6.756;2023-07-29T14:09:31;29.90;73.90
2477;DHT22;1249;51.270;6.756;2023-07-29T14:11:57;30.10;72.90
2477;DHT22;1249;51.270;6.756;2023-07-29T14:14:22;30.10;71.60
2477;DHT22;1249;51.270;6.756;2023-07-29T14:16:48;30.00;73.20
2477;DHT22;1249;51.270;6.756;2023-07-29T14:19:14;30.20;72.80
2477;DHT22;1249;51.270;6.756;2023-07-29T14:21:40;30.20;71.60
2477;DHT22;1249;51.270;6.756;2023-07-29T14:24:05;30.00;70.30
2477;DHT22;1249;51.270;6.756;2023-07-29T14:26:31;30.00;70.10
2477;DHT22;1249;51.270;6.756;2023-07-29T14:28:57;29.80;69.80
2477;DHT22;1249;51.270;6.756;2023-07-29T14:31:22;29.70;70.40
2477;DHT22;1249;51.270;6.756;2023-07-29T14:33:48;29.70;70.40
2477;DHT22;1249;51.270;6.756;2023-07-29T14:36:15;29.70;70.00
2477;DHT22;1249;51.270;6.756;2023-07-29T14:38:41;29.50;70.30
2477;DHT22;1249;51.270;6.756;2023-07-29T14:41:06;29.20;70.80
2477;DHT22;1249;51.270;6.756;2023-07-29T14:43:32;28.90;72.60
2477;DHT22;1249;51.270;6.756;2023-07-29T14:45:57;28.60;73.70
2477;DHT22;1249;51.270;6.756;2023-07-29T14:48:23;28.40;74.60
2477;DHT22;1249;51.270;6.756;2023-07-29T14:50:49;28.30;76.10
2477;DHT22;1249;51.270;6.756;2023-07-29T14:53:14;28.40;76.50
2477;DHT22;1249;51.270;6.756;2023-07-29T14:55:40;28.40;76.60
2477;DHT22;1249;51.270;6.756;2023-07-29T14:58:05;28.30;76.60
2477;DHT22;1249;51.270;6.756;2023-07-29T15:00:31;28.20;77.30
2477;DHT22;1249;51.270;6.756;2023-07-29T15:02:57;28.20;77.70
2477;DHT22;1249;51.270;6.756;2023-07-29T15:05:22;28.30;78.20
2477;DHT22;1249;51.270;6.756;2023-07-29T15:07:48;28.50;79.10
2477;DHT22;1249;51.270;6.756;2023-07-29T15:10:14;29.00;78.60
2477;DHT22;1249;51.270;6.756;2023-07-29T15:12:44;29.40;77.90
2477;DHT22;1249;51.270;6.756;2023-07-29T15:15:11;29.90;76.10
2477;DHT22;1249;51.270;6.756;2023-07-29T15:17:37;30.40;75.00
2477;DHT22;1249;51.270;6.756;2023-07-29T15:20:03;31.20;75.20
2477;DHT22;1249;51.270;6.756;2023-07-29T15:22:29;32.00;72.20
2477;DHT22;1249;51.270;6.756;2023-07-29T15:24:57;32.70;70.10
2477;DHT22;1249;51.270;6.756;2023-07-29T15:27:22;33.30;68.10
2477;DHT22;1249;51.270;6.756;2023-07-29T15:29:48;33.80;65.90
2477;DHT22;1249;51.270;6.756;2023-07-29T15:32:13;34.20;64.90
2477;DHT22;1249;51.270;6.756;2023-07-29T15:34:39;34.50;63.20
2477;DHT22;1249;51.270;6.756;2023-07-29T15:37:05;34.80;62.40
2477;DHT22;1249;51.270;6.756;2023-07-29T15:39:30;35.10;61.60
2477;DHT22;1249;51.270;6.756;2023-07-29T15:41:58;35.30;60.90
2477;DHT22;1249;51.270;6.756;2023-07-29T15:44:23;35.40;60.40
2477;DHT22;1249;51.270;6.756;2023-07-29T15:46:49;35.60;60.50
2477;DHT22;1249;51.270;6.756;2023-07-29T15:49:17;35.60;59.60
2477;DHT22;1249;51.270;6.756;2023-07-29T15:51:43;35.70;59.20
2477;DHT22;1249;51.270;6.756;2023-07-29T15:54:08;35.70;58.50
2477;DHT22;1249;51.270;6.756;2023-07-29T15:56:34;35.70;58.30
2477;DHT22;1249;51.270;6.756;2023-07-29T15:59:04;35.60;58.30
2477;DHT22;1249;51.270;6.756;2023-07-29T16:01:29;35.70;58.50
2477;DHT22;1249;51.270;6.756;2023-07-29T16:03:55;35.70;58.80
2477;DHT22;1249;51.270;6.756;2023-07-29T16:06:21;35.70;58.80
2477;DHT22;1249;51.270;6.756;2023-07-29T16:08:47;35.70;58.00